Pagrindinis puslapis
METAR-TAF:

METAR-TAF

Oro uostai :

Miyako-jima, Japonija

platuma: 24-47N, ilguma: 125-17E, Aukštis: 40 m

Dabartinis oras

Ataskaita buvo paskelbta 22 minutes, ne 06:00 UTC
Vėjas 12 kt iš Šiaurės, svyruoja nuo Šiaurės Vakarų ir Šiaurės/Šiaurės Rytų
Temperatūra 20°C
Drėgmė 60%
Slėgis 1017 hPa
Matomumas 10 km arba daugiau
Mažai debesys ne aukštis 3800 ft
Su prošvaistėmis ne aukštis 6000 ft

METAR: ROMY 020600Z 36012KT 320V030 9999 FEW038 BKN060 20/12 Q1017

Laikas: 15:22 (06:22 UTC)


TAF: trūkstamas

Orai ataskaitas ir orų prognozės (METAR, TAF).

turimą stotys yra geltonos ir raudonos taškus žemėlapyje.

Perkelti pele per norėdami pamatyti stoties vardą.

Tada spustelėkite, norėdami matyti oro stebėjimo ir prognozės.

Norėdami pakeisti žemėlapį: spustelėkite ant žalios mygtukų su juodo kryžiaus žemyn,; žalią mygtuką su brūkšneliu, jei norite nutolinti; arba žalių rodyklių gretimoms žemėlapius.


METAR-TAF: